Time;durP1;ratioP1;P1;durP2;ratioP2;P2;SDS_P1;SDS_P2;PMS_P1;PMS_P2;Temp;Humidity;BMP_temperature;BMP_pressure;BME280_temperature;BME280_humidity;BME280_pressure;Samples;Min_cycle;Max_cycle;Signal;HPM_P1;HPM_P2
2022/12/21 00:01:22;;;;;;;1.80;1.40;;;13.30;58.70;;;;;;5033277;28;20049;-74
2022/12/21 00:03:53;;;;;;;1.80;1.50;;;;;;;;;;5033212;28;20136;-73
2022/12/21 00:06:21;;;;;;;2.47;1.65;;;;;;;;;;5033353;28;20064;-74
2022/12/21 00:08:48;;;;;;;2.35;1.60;;;;;;;;;;5034328;28;20084;-74
2022/12/21 00:11:15;;;;;;;1.60;1.48;;;;;;;;;;5033341;28;20056;-74
2022/12/21 00:13:42;;;;;;;2.50;1.75;;;;;;;;;;5036304;28;20056;-74
2022/12/21 00:16:10;;;;;;;2.08;1.58;;;;;;;;;;5053053;28;20083;-74
2022/12/21 00:18:38;;;;;;;1.48;1.38;;;;;;;;;;5052816;28;20057;-74
2022/12/21 00:21:06;;;;;;;2.22;1.67;;;13.20;62.40;;;;;;5052858;28;20127;-74
2022/12/21 00:23:34;;;;;;;2.30;1.70;;;;;;;;;;5052982;28;20060;-76
2022/12/21 00:26:01;;;;;;;1.90;1.50;;;;;;;;;;5032977;28;20057;-74
2022/12/21 00:28:28;;;;;;;3.85;1.80;;;;;;;;;;5034082;28;20049;-74
2022/12/21 00:30:55;;;;;;;2.08;1.73;;;;;;;;;;5032984;28;20443;-74
2022/12/21 00:33:22;;;;;;;4.03;1.73;;;;;;;;;;5033800;28;20392;-74
2022/12/21 00:35:50;;;;;;;2.17;1.80;;;;;;;;;;5032328;28;20054;-74
2022/12/21 00:38:18;;;;;;;3.25;1.80;;;13.20;61.70;;;;;;5052571;28;20059;-74
2022/12/21 00:40:56;;;;;;;2.38;1.85;;;13.10;60.50;;;;;;5034296;28;20046;-74
2022/12/21 00:43:23;;;;;;;3.10;2.10;;;;;;;;;;5033537;28;20053;-74
2022/12/21 00:45:50;;;;;;;4.40;1.90;;;;;;;;;;5032477;28;20053;-74
2022/12/21 00:48:17;;;;;;;2.30;1.92;;;;;;;;;;5032534;28;20057;-74
2022/12/21 00:50:44;;;;;;;3.25;1.80;;;;;;;;;;5031764;28;20055;-74
2022/12/21 00:53:11;;;;;;;2.70;1.77;;;;;;;;;;5033070;28;20046;-74
2022/12/21 00:55:40;;;;;;;2.58;1.65;;;13.10;62.80;;;;;;5012789;28;20062;-73
2022/12/21 00:58:07;;;;;;;2.50;1.98;;;;;;;;;;5012297;28;20060;-74
2022/12/21 01:00:34;;;;;;;2.88;1.92;;;;;;;;;;5013399;28;20136;-74
2022/12/21 01:03:01;;;;;;;2.58;2.00;;;;;;;;;;5012272;28;20057;-74
2022/12/21 01:05:29;;;;;;;2.63;2.05;;;;;;;;;;5012798;28;20057;-74
2022/12/21 01:07:56;;;;;;;2.67;1.80;;;;;;;;;;5012514;28;20050;-74
2022/12/21 01:10:23;;;;;;;2.50;1.83;;;;;;;;;;5037745;28;20041;-74
2022/12/21 01:12:51;;;;;;;2.28;1.73;;;13.10;62.90;;;;;;5052981;28;20136;-74
2022/12/21 01:15:19;;;;;;;2.60;1.80;;;;;;;;;;5051800;28;20470;-74
2022/12/21 01:17:46;;;;;;;2.60;1.92;;;;;;;;;;5052069;28;20075;-74
2022/12/21 01:20:13;;;;;;;2.67;1.90;;;;;;;;;;5052924;28;20049;-74
2022/12/21 01:22:40;;;;;;;2.30;1.70;;;;;;;;;;5051565;28;20063;-74
2022/12/21 01:25:08;;;;;;;2.75;2.00;;;;;;;;;;5031742;28;20061;-73
2022/12/21 01:27:35;;;;;;;2.63;1.90;;;;;;;;;;5031679;28;20132;-74
2022/12/21 01:30:03;;;;;;;2.47;1.90;;;14.10;61.60;;;;;;5031959;28;20057;-74
2022/12/21 01:32:30;;;;;;;3.55;2.10;;;;;;;;;;5031491;28;20056;-74
2022/12/21 01:34:57;;;;;;;2.92;1.80;;;;;;;;;;5031766;28;20554;-73
2022/12/21 01:37:24;;;;;;;2.92;1.95;;;;;;;;;;5044425;28;20486;-74
2022/12/21 01:39:51;;;;;;;2.92;1.90;;;;;;;;;;5032308;28;20445;-74
2022/12/21 01:42:18;;;;;;;2.10;1.83;;;;;;;;;;5031016;28;20508;-74
2022/12/21 01:45:02;;;;;;;2.53;2.00;;;12.90;63.10;;;;;;5032601;28;20601;-74
2022/12/21 01:47:31;;;;;;;2.70;1.95;;;;;;;;;;5031126;28;20414;-74
2022/12/21 01:50:00;;;;;;;3.30;2.00;;;13.00;63.00;;;;;;5031710;28;20079;-73
2022/12/21 01:52:27;;;;;;;2.22;1.80;;;;;;;;;;5030915;28;20415;-74
2022/12/21 01:54:55;;;;;;;3.17;2.05;;;12.90;62.60;;;;;;5032405;28;20409;-74
2022/12/21 01:57:22;;;;;;;2.45;1.80;;;;;;;;;;5032468;28;20075;-74
2022/12/21 01:59:50;;;;;;;3.25;1.70;;;;;;;;;;5032312;28;20053;-74
2022/12/21 02:02:19;;;;;;;2.22;1.67;;;12.90;63.00;;;;;;5030627;28;20053;-74
2022/12/21 02:04:47;;;;;;;2.70;1.85;;;12.80;63.20;;;;;;5032451;28;20049;-74
2022/12/21 02:07:14;;;;;;;2.83;1.77;;;;;;;;;;5039152;28;20056;-74
2022/12/21 02:09:41;;;;;;;2.60;1.95;;;;;;;;;;5030925;28;20053;-74
2022/12/21 02:12:08;;;;;;;3.15;2.00;;;;;;;;;;5032165;28;20092;-74
2022/12/21 02:14:36;;;;;;;2.78;1.98;;;;;;;;;;5032158;28;20045;-74
2022/12/21 02:17:05;;;;;;;2.42;1.80;;;;;;;;;;5031950;28;20049;-74
2022/12/21 02:20:15;;;;;;;2.55;1.80;;;12.80;63.00;;;;;;5030939;28;20057;-74
2022/12/21 02:22:47;;;;;;;2.90;2.05;;;;;;;;;;5017144;28;20064;-74
2022/12/21 02:25:29;;;;;;;3.00;2.00;;;;;;;;;;5031199;28;20049;-74
2022/12/21 02:28:04;;;;;;;3.92;2.10;;;;;;;;;;5030921;28;20076;-74
2022/12/21 02:31:08;;;;;;;3.20;2.00;;;12.90;62.50;;;;;;5030964;28;20056;-74
2022/12/21 02:33:39;;;;;;;2.50;2.00;;;;;;;;;;5021117;28;20069;-74
2022/12/21 02:36:11;;;;;;;2.80;1.95;;;12.60;61.00;;;;;;5032678;28;20053;-74
2022/12/21 02:38:46;;;;;;;3.20;2.17;;;12.90;63.40;;;;;;5031701;28;20053;-74
2022/12/21 02:41:17;;;;;;;2.92;2.10;;;12.70;63.40;;;;;;5030517;28;20124;-73
2022/12/21 02:46:34;;;;;;;3.03;2.40;;;;;;;;;;5030241;28;20053;-73
2022/12/21 02:49:01;;;;;;;4.43;2.03;;;;;;;;;;5030211;28;20054;-74
2022/12/21 02:51:30;;;;;;;3.20;2.42;;;;;;;;;;5029965;28;20045;-74
2022/12/21 02:53:57;;;;;;;3.00;2.35;;;;;;;;;;5031468;28;20056;-74
2022/12/21 02:56:24;;;;;;;3.22;2.28;;;;;;;;;;5030575;28;20053;-73
2022/12/21 02:58:51;;;;;;;3.95;2.20;;;;;;;;;;5031397;28;20056;-74
2022/12/21 03:01:22;;;;;;;3.25;2.42;;;;;;;;;;5030043;28;20054;-74
2022/12/21 03:04:09;;;;;;;3.47;2.25;;;12.70;63.20;;;;;;5043912;28;20424;-74
2022/12/21 03:06:42;;;;;;;3.10;2.20;;;;;;;;;;5050317;28;20057;-73
2022/12/21 03:09:14;;;;;;;2.92;2.10;;;12.80;62.50;;;;;;5050323;28;20059;-74
2022/12/21 03:11:47;;;;;;;2.88;2.20;;;12.80;63.30;;;;;;5050475;28;20425;-74
2022/12/21 03:14:19;;;;;;;3.15;2.25;;;12.70;63.20;;;;;;5053871;28;20155;-74
2022/12/21 03:16:48;;;;;;;4.00;2.30;;;;;;;;;;5042190;28;20055;-74
2022/12/21 03:19:18;;;;;;;4.13;2.50;;;;;;;;;;5034287;28;20058;-74
2022/12/21 03:21:46;;;;;;;5.03;2.60;;;;;;;;;;5035077;28;20077;-74
2022/12/21 03:24:15;;;;;;;4.82;2.50;;;12.60;61.40;;;;;;5033826;28;20512;-74
2022/12/21 03:26:43;;;;;;;3.95;2.30;;;;;;;;;;5034085;28;20136;-74
2022/12/21 03:29:10;;;;;;;3.40;2.30;;;;;;;;;;5034159;28;20144;-74
2022/12/21 03:31:38;;;;;;;3.40;2.28;;;;;;;;;;5033418;28;20052;-73
2022/12/21 03:34:05;;;;;;;5.30;2.40;;;;;;;;;;5033618;28;20618;-74
2022/12/21 03:36:36;;;;;;;4.22;2.20;;;;;;;;;;5040629;28;20059;-74
2022/12/21 03:39:04;;;;;;;3.28;2.10;;;12.80;62.10;;;;;;5055041;28;20068;-74
2022/12/21 03:41:33;;;;;;;3.78;2.35;;;12.70;63.20;;;;;;5053597;28;20049;-73
2022/12/21 03:44:01;;;;;;;2.90;2.35;;;;;;;;;;5053573;28;20145;-74
2022/12/21 03:46:29;;;;;;;4.05;2.42;;;;;;;;;;5046261;28;20085;-74
2022/12/21 03:48:57;;;;;;;2.95;2.28;;;12.60;62.20;;;;;;5033571;28;20050;-74
2022/12/21 03:51:27;;;;;;;3.80;2.63;;;12.70;63.40;;;;;;5033641;28;20076;-74
2022/12/21 03:53:57;;;;;;;3.40;2.17;;;12.70;62.80;;;;;;5034556;28;20057;-74
2022/12/21 03:56:25;;;;;;;3.67;2.40;;;;;;;;;;5034656;28;20487;-74
2022/12/21 03:58:52;;;;;;;3.45;2.10;;;;;;;;;;5037228;28;20059;-74
2022/12/21 04:01:21;;;;;;;3.70;2.38;;;12.70;63.30;;;;;;5043620;28;20063;-74
2022/12/21 04:03:49;;;;;;;3.28;2.30;;;;;;;;;;5033144;28;20075;-74
2022/12/21 04:06:17;;;;;;;3.55;2.40;;;12.70;61.40;;;;;;5034444;28;20053;-74
2022/12/21 04:08:45;;;;;;;3.55;2.45;;;;;;;;;;5033435;28;20085;-74
2022/12/21 04:12:36;;;;;;;3.47;2.35;;;12.70;63.40;;;;;;5033241;28;20059;-74
2022/12/21 04:13:59;;;;;;;3.50;2.40;;;;;;;;;;5033723;28;20053;-73
2022/12/21 04:16:26;;;;;;;3.33;2.50;;;;;;;;;;5032882;28;20057;-73
2022/12/21 04:21:38;;;;;;;3.78;2.65;;;;;;;;;;5034068;28;20109;-74
2022/12/21 04:29:53;;;;;;;3.95;2.25;;;;;;;;;;5031544;28;20046;-73
2022/12/21 04:32:20;;;;;;;3.40;2.22;;;;;;;;;;5032514;28;20053;-74
2022/12/21 04:34:47;;;;;;;3.22;2.40;;;;;;;;;;5033839;28;20401;-73
2022/12/21 04:37:31;;;;;;;3.47;2.10;;;;;;;;;;5045361;28;20405;-74
2022/12/21 04:39:58;;;;;;;4.00;2.55;;;;;;;;;;5052767;28;20061;-74
2022/12/21 04:42:27;;;;;;;3.47;2.35;;;;;;;;;;5053246;28;20060;-74
2022/12/21 04:44:54;;;;;;;3.40;2.30;;;;;;;;;;5048526;28;20058;-74
2022/12/21 04:47:21;;;;;;;3.25;2.30;;;;;;;;;;5032619;28;20057;-73
2022/12/21 04:49:48;;;;;;;4.53;2.35;;;;;;;;;;5033507;28;20045;-74
2022/12/21 04:52:15;;;;;;;3.05;2.28;;;;;;;;;;5032260;28;20064;-74
2022/12/21 04:54:42;;;;;;;3.65;2.45;;;;;;;;;;5032614;28;20059;-74
2022/12/21 04:57:09;;;;;;;2.70;2.20;;;;;;;;;;5052351;28;20059;-74
2022/12/21 04:59:37;;;;;;;2.78;2.28;;;;;;;;;;5048818;28;20137;-73
2022/12/21 05:02:04;;;;;;;4.05;2.20;;;;;;;;;;5031880;28;20050;-74
2022/12/21 05:04:31;;;;;;;2.95;2.15;;;;;;;;;;5032265;28;20049;-73
2022/12/21 05:06:58;;;;;;;2.55;1.90;;;;;;;;;;5032211;28;20057;-74
2022/12/21 05:09:26;;;;;;;3.25;2.13;;;;;;;;;;5032319;28;20148;-73
2022/12/21 05:11:53;;;;;;;2.88;1.98;;;;;;;;;;5031924;28;20410;-74
2022/12/21 05:14:20;;;;;;;3.17;2.28;;;;;;;;;;5031587;28;20057;-74
2022/12/21 05:16:48;;;;;;;3.53;2.50;;;12.70;63.50;;;;;;5031982;28;20057;-74
2022/12/21 05:19:15;;;;;;;2.85;2.10;;;;;;;;;;5031942;28;20409;-74
2022/12/21 05:21:42;;;;;;;3.42;2.42;;;;;;;;;;5032019;28;20111;-73
2022/12/21 05:24:09;;;;;;;3.60;2.03;;;;;;;;;;5031679;28;20091;-74
2022/12/21 05:26:37;;;;;;;3.50;2.20;;;;;;;;;;5032879;28;20152;-74
2022/12/21 05:29:04;;;;;;;3.08;2.03;;;;;;;;;;5031374;28;20049;-74
2022/12/21 05:31:31;;;;;;;5.35;2.40;;;;;;;;;;5031971;28;20067;-74
2022/12/21 05:33:59;;;;;;;3.47;2.40;;;;;;;;;;5031526;28;20137;-74
2022/12/21 05:36:29;;;;;;;3.13;2.00;;;;;;;;;;5036118;28;20055;-73
2022/12/21 05:38:56;;;;;;;2.80;2.10;;;;;;;;;;5051014;28;20103;-74
2022/12/21 05:41:23;;;;;;;2.72;2.25;;;;;;;;;;5051556;28;20059;-74
2022/12/21 05:43:50;;;;;;;2.80;1.83;;;;;;;;;;5048858;28;20060;-74
2022/12/21 05:46:17;;;;;;;3.00;1.92;;;;;;;;;;5031507;28;20060;-76
2022/12/21 05:48:44;;;;;;;3.15;2.03;;;;;;;;;;5031540;28;20140;-74
2022/12/21 05:51:13;;;;;;;4.10;2.20;;;;;;;;;;5034404;28;20041;-74
2022/12/21 05:53:41;;;;;;;3.00;2.22;;;12.70;61.30;;;;;;5050977;28;20148;-74
2022/12/21 05:56:08;;;;;;;3.58;2.35;;;;;;;;;;5051165;28;20057;-74
2022/12/21 05:58:35;;;;;;;2.92;2.30;;;;;;;;;;5047788;28;20083;-73
2022/12/21 06:01:03;;;;;;;4.45;2.67;;;;;;;;;;5031249;28;20144;-74
2022/12/21 06:03:30;;;;;;;4.35;2.25;;;;;;;;;;5030742;28;20049;-73
2022/12/21 06:06:01;;;;;;;3.78;2.60;;;;;;;;;;5031087;28;20063;-74
2022/12/21 06:08:31;;;;;;;3.75;2.53;;;;;;;;;;5030292;28;20053;-74
2022/12/21 06:10:58;;;;;;;3.85;2.40;;;;;;;;;;5030877;28;20058;-74
2022/12/21 06:13:25;;;;;;;2.95;2.10;;;;;;;;;;5031707;28;20053;-74
2022/12/21 06:15:52;;;;;;;2.97;2.28;;;;;;;;;;5031898;28;20049;-74
2022/12/21 06:18:19;;;;;;;3.42;2.20;;;;;;;;;;5030786;28;20140;-74
2022/12/21 06:20:51;;;;;;;3.50;2.22;;;;;;;;;;5030846;28;20057;-74
2022/12/21 06:23:19;;;;;;;4.47;2.88;;;;;;;;;;5030520;28;20056;-74
2022/12/21 06:25:47;;;;;;;3.92;2.60;;;;;;;;;;5030669;28;20137;-73
2022/12/21 06:28:14;;;;;;;3.67;2.33;;;;;;;;;;5030620;28;20049;-74
2022/12/21 06:30:41;;;;;;;3.05;2.20;;;;;;;;;;5031494;28;20049;-74
2022/12/21 06:33:08;;;;;;;4.72;2.20;;;;;;;;;;5030420;28;20049;-74
2022/12/21 06:35:35;;;;;;;2.90;2.17;;;;;;;;;;5030527;28;20053;-74
2022/12/21 06:38:02;;;;;;;3.05;2.30;;;;;;;;;;5048573;28;20064;-74
2022/12/21 06:40:30;;;;;;;3.53;2.35;;;;;;;;;;5051397;28;20056;-74
2022/12/21 06:42:58;;;;;;;3.88;2.40;;;;;;;;;;5050180;28;20044;-74
2022/12/21 06:45:26;;;;;;;4.07;2.45;;;;;;;;;;5030200;28;20057;-74
2022/12/21 06:47:54;;;;;;;3.38;2.30;;;;;;;;;;5038867;28;20064;-74
2022/12/21 06:50:21;;;;;;;3.70;2.20;;;;;;;;;;5053057;28;20066;-74
2022/12/21 06:52:49;;;;;;;3.72;2.55;;;;;;;;;;5035428;28;20049;-74
2022/12/21 06:55:16;;;;;;;3.65;2.53;;;;;;;;;;5034799;28;20091;-74
2022/12/21 06:57:43;;;;;;;4.32;2.70;;;;;;;;;;5035644;28;20089;-73
2022/12/21 07:00:13;;;;;;;3.20;2.30;;;13.00;63.10;;;;;;5035320;28;20132;-74
2022/12/21 07:02:41;;;;;;;3.30;2.10;;;;;;;;;;5034338;28;20077;-74
2022/12/21 07:05:08;;;;;;;3.75;2.35;;;;;;;;;;5034500;28;20140;-74
2022/12/21 07:07:36;;;;;;;3.95;2.20;;;;;;;;;;5035556;28;20049;-74
2022/12/21 07:10:03;;;;;;;4.38;2.70;;;;;;;;;;5034514;28;20144;-76
2022/12/21 07:12:30;;;;;;;3.42;2.40;;;;;;;;;;5033905;28;20080;-75
2022/12/21 07:14:57;;;;;;;4.25;2.50;;;;;;;;;;5033966;28;20060;-75
2022/12/21 07:17:26;;;;;;;3.72;2.22;;;;;;;;;;5033887;28;20136;-74
2022/12/21 07:19:53;;;;;;;4.47;2.60;;;;;;;;;;5034115;28;20067;-75
2022/12/21 07:22:20;;;;;;;3.78;2.47;;;;;;;;;;5033655;28;20053;-75
2022/12/21 07:24:47;;;;;;;5.20;2.90;;;;;;;;;;5034152;28;20063;-75
2022/12/21 07:27:14;;;;;;;4.32;2.67;;;;;;;;;;5034002;28;20060;-75
2022/12/21 07:29:41;;;;;;;4.30;2.45;;;;;;;;;;5034015;28;20561;-75
2022/12/21 07:32:08;;;;;;;4.55;2.70;;;;;;;;;;5033811;28;20470;-75
2022/12/21 07:34:36;;;;;;;4.63;3.08;;;12.60;63.40;;;;;;5038657;28;20476;-75
2022/12/21 07:37:03;;;;;;;3.90;2.42;;;;;;;;;;5052894;28;20063;-75
2022/12/21 07:39:30;;;;;;;4.45;2.47;;;;;;;;;;5053135;28;20056;-75
2022/12/21 07:41:58;;;;;;;4.95;3.10;;;;;;;;;;5043471;28;20140;-75
2022/12/21 07:44:25;;;;;;;5.57;3.15;;;;;;;;;;5043622;28;20049;-75
2022/12/21 07:46:52;;;;;;;4.53;2.95;;;;;;;;;;5049831;28;20055;-75
2022/12/21 07:49:19;;;;;;;3.92;2.42;;;;;;;;;;5053232;28;20055;-75
2022/12/21 07:51:47;;;;;;;4.40;2.88;;;12.80;63.30;;;;;;5051906;28;20045;-75
2022/12/21 07:54:15;;;;;;;6.10;3.30;;;;;;;;;;5043960;28;20054;-74
2022/12/21 07:56:42;;;;;;;4.38;2.80;;;;;;;;;;5025205;28;20061;-73
2022/12/21 07:59:09;;;;;;;4.05;2.60;;;;;;;;;;5021720;28;20045;-74
2022/12/21 08:01:36;;;;;;;5.55;3.10;;;;;;;;;;5030471;28;20053;-74
2022/12/21 08:04:03;;;;;;;4.03;2.78;;;;;;;;;;5032982;28;20045;-74
2022/12/21 08:06:30;;;;;;;5.90;3.58;;;;;;;;;;5034571;28;20129;-74
2022/12/21 08:08:59;;;;;;;6.20;3.05;;;;;;;;;;5033309;28;20136;-74
2022/12/21 08:11:28;;;;;;;4.57;3.00;;;;;;;;;;5033452;28;20070;-74
2022/12/21 08:13:55;;;;;;;6.55;3.00;;;;;;;;;;5048749;28;20517;-74
2022/12/21 08:16:22;;;;;;;4.88;3.03;;;;;;;;;;5032236;28;20057;-74
2022/12/21 08:18:50;;;;;;;5.22;3.10;;;;;;;;;;5033019;28;20059;-74
2022/12/21 08:21:17;;;;;;;5.82;3.03;;;;;;;;;;5033209;28;20158;-74
2022/12/21 08:23:44;;;;;;;4.55;3.00;;;;;;;;;;5032347;28;20051;-74
2022/12/21 08:26:12;;;;;;;5.65;3.30;;;12.80;62.80;;;;;;5032743;28;20063;-74
2022/12/21 08:28:40;;;;;;;4.63;2.90;;;;;;;;;;5033087;28;20053;-74
2022/12/21 08:31:07;;;;;;;5.20;3.13;;;;;;;;;;5032718;28;20061;-74
2022/12/21 08:33:35;;;;;;;5.15;3.10;;;;;;;;;;5032598;28;20053;-74
2022/12/21 08:36:02;;;;;;;4.03;2.70;;;;;;;;;;5033934;28;20061;-74
2022/12/21 08:38:29;;;;;;;5.45;3.20;;;;;;;;;;5032752;28;20055;-74
2022/12/21 08:41:01;;;;;;;4.95;2.90;;;;;;;;;;5043880;28;20053;-74
2022/12/21 08:43:29;;;;;;;4.63;2.72;;;;;;;;;;5052277;28;20076;-73
2022/12/21 08:45:56;;;;;;;5.10;3.22;;;;;;;;;;5033499;28;20054;-75
2022/12/21 08:48:24;;;;;;;4.30;2.75;;;;;;;;;;5032593;28;20136;-74
2022/12/21 08:50:51;;;;;;;4.70;2.95;;;13.40;60.50;;;;;;5032679;28;20075;-74
2022/12/21 08:53:18;;;;;;;5.57;2.80;;;;;;;;;;5031947;28;20056;-74
2022/12/21 08:55:46;;;;;;;4.03;2.78;;;;;;;;;;5036513;28;20059;-74
2022/12/21 08:58:13;;;;;;;5.60;2.78;;;;;;;;;;5031810;28;20061;-77
2022/12/21 09:00:42;;;;;;;5.07;2.63;;;13.50;61.80;;;;;;5025851;28;20149;-74
2022/12/21 09:03:09;;;;;;;4.75;3.03;;;;;;;;;;5040175;28;20049;-74
2022/12/21 09:05:36;;;;;;;5.57;2.92;;;;;;;;;;5027921;28;20052;-74
2022/12/21 09:08:03;;;;;;;5.13;3.00;;;;;;;;;;5022689;28;20049;-74
2022/12/21 09:10:30;;;;;;;3.58;2.70;;;;;;;;;;5044597;28;20055;-75
2022/12/21 09:12:57;;;;;;;4.85;3.00;;;;;;;;;;5044658;28;20045;-73
2022/12/21 09:15:24;;;;;;;5.60;2.78;;;;;;;;;;5049616;28;20049;-74
2022/12/21 09:17:52;;;;;;;5.03;2.90;;;13.60;61.50;;;;;;5051203;28;20055;-74
2022/12/21 09:20:19;;;;;;;5.00;3.00;;;;;;;;;;5046617;28;20390;-74
2022/12/21 09:22:46;;;;;;;4.30;2.70;;;;;;;;;;5051706;28;20481;-74
2022/12/21 09:25:13;;;;;;;5.47;3.42;;;;;;;;;;5051786;28;20115;-74
2022/12/21 09:27:41;;;;;;;6.40;3.15;;;;;;;;;;5042383;28;20055;-74
2022/12/21 09:30:09;;;;;;;7.35;3.03;;;;;;;;;;5031612;28;20057;-74
2022/12/21 09:32:36;;;;;;;5.93;3.30;;;;;;;;;;5031659;28;20057;-74
2022/12/21 09:35:05;;;;;;;6.47;3.35;;;;;;;;;;5031583;28;20148;-73
2022/12/21 09:37:32;;;;;;;6.20;3.85;;;;;;;;;;5030775;28;20077;-74
2022/12/21 09:39:59;;;;;;;5.43;3.38;;;;;;;;;;5031764;28;20061;-74
2022/12/21 09:42:31;;;;;;;7.50;3.67;;;;;;;;;;5031049;28;20057;-74
2022/12/21 09:45:06;;;;;;;5.07;3.20;;;13.80;59.80;;;;;;5031413;28;20049;-74
2022/12/21 09:47:35;;;;;;;6.65;3.58;;;13.90;61.00;;;;;;5031161;28;20449;-74
2022/12/21 09:50:05;;;;;;;8.15;3.67;;;14.00;61.00;;;;;;5031642;28;20052;-73
2022/12/21 09:52:34;;;;;;;7.80;4.18;;;14.00;61.00;;;;;;5030720;28;20148;-73
2022/12/21 09:55:02;;;;;;;7.35;3.97;;;;;;;;;;5031131;28;20433;-74
2022/12/21 09:57:30;;;;;;;6.05;3.60;;;;;;;;;;5032501;28;20056;-74
2022/12/21 09:59:59;;;;;;;6.13;3.45;;;;;;;;;;5032590;28;20055;-74
2022/12/21 10:02:30;;;;;;;6.05;3.70;;;;;;;;;;5031745;28;20128;-75
2022/12/21 10:05:06;;;;;;;5.13;3.30;;;14.00;60.90;;;;;;5029745;28;20413;-74
2022/12/21 10:07:42;;;;;;;6.63;3.85;;;;;;;;;;5028972;28;20494;-74
2022/12/21 10:10:12;;;;;;;5.30;3.30;;;;;;;;;;5041537;28;20556;-74
2022/12/21 10:12:42;;;;;;;6.30;3.85;;;14.00;60.80;;;;;;5040463;28;20049;-74
2022/12/21 10:15:22;;;;;;;5.93;3.55;;;;;;;;;;5074938;28;20053;-74
2022/12/21 10:17:52;;;;;;;7.47;3.55;;;;;;;;;;5039585;28;20128;-74
2022/12/21 10:20:29;;;;;;;8.80;3.72;;;;;;;;;;5041847;28;20051;-74
2022/12/21 10:22:56;;;;;;;6.93;3.70;;;;;;;;;;5039277;28;20059;-74
2022/12/21 10:25:24;;;;;;;5.97;3.70;;;14.10;60.50;;;;;;5038075;28;20144;-74
2022/12/21 10:27:51;;;;;;;4.55;3.17;;;;;;;;;;5041928;28;20143;-73
2022/12/21 10:30:19;;;;;;;7.13;3.65;;;;;;;;;;5042654;28;20658;-74
2022/12/21 10:32:46;;;;;;;5.65;3.63;;;14.20;60.70;;;;;;5041433;28;20041;-74
2022/12/21 10:35:19;;;;;;;5.40;3.28;;;14.10;61.00;;;;;;5042306;28;20049;-74
2022/12/21 10:37:48;;;;;;;6.70;3.70;;;;;;;;;;5035276;28;20045;-74
2022/12/21 10:40:15;;;;;;;5.63;3.90;;;;;;;;;;5030225;28;20128;-74
2022/12/21 10:42:42;;;;;;;6.25;3.88;;;;;;;;;;5031835;28;20401;-74
2022/12/21 10:45:13;;;;;;;6.43;3.70;;;14.30;61.10;;;;;;5029315;28;20394;-73
2022/12/21 10:47:43;;;;;;;8.20;4.25;;;;;;;;;;5031639;28;20421;-75
2022/12/21 10:50:12;;;;;;;5.40;3.88;;;14.10;61.00;;;;;;5031434;28;20402;-74
2022/12/21 10:52:40;;;;;;;5.70;3.72;;;14.20;59.00;;;;;;5040340;28;20053;-74
2022/12/21 10:55:25;;;;;;;5.70;3.63;;;;;;;;;;5050124;28;20537;-74
2022/12/21 10:57:54;;;;;;;6.97;4.43;;;;;;;;;;5041849;28;20056;-73
2022/12/21 11:00:22;;;;;;;7.55;4.20;;;;;;;;;;5027981;28;20546;-74
2022/12/21 11:02:49;;;;;;;6.30;3.40;;;;;;;;;;5031211;28;20045;-75
2022/12/21 11:05:37;;;;;;;5.65;3.90;;;14.20;61.20;;;;;;5030289;28;20558;-73
2022/12/21 11:08:26;;;;;;;6.50;4.13;;;14.20;61.30;;;;;;5024354;28;20141;-73
2022/12/21 11:10:55;;;;;;;6.75;4.32;;;;;;;;;;5030569;28;20057;-75
2022/12/21 11:13:23;;;;;;;6.28;4.05;;;;;;;;;;5030008;28;20081;-76
2022/12/21 11:15:54;;;;;;;7.82;4.20;;;;;;;;;;5029666;28;20062;-74
2022/12/21 11:18:42;;;;;;;5.50;3.83;;;;;;;;;;5029787;28;20057;-74
2022/12/21 11:21:30;;;;;;;8.85;4.32;;;;;;;;;;5027091;28;20057;-74
2022/12/21 11:23:58;;;;;;;7.75;4.18;;;;;;;;;;5026859;28;20045;-77
2022/12/21 11:26:28;;;;;;;6.13;3.90;;;14.10;61.40;;;;;;5030262;28;20068;-74
2022/12/21 11:29:02;;;;;;;6.93;4.07;;;14.10;61.50;;;;;;5030338;28;20057;-72
2022/12/21 11:31:30;;;;;;;6.43;4.13;;;;;;;;;;5025613;28;20124;-73
2022/12/21 11:33:57;;;;;;;6.40;4.15;;;;;;;;;;5024122;28;20125;-73
2022/12/21 11:36:24;;;;;;;6.07;3.83;;;;;;;;;;5024627;28;20052;-73
2022/12/21 11:38:51;;;;;;;8.88;4.47;;;;;;;;;;5054681;28;20048;-73
2022/12/21 11:41:23;;;;;;;7.68;4.20;;;;;;;;;;5041484;28;20054;-72
2022/12/21 11:43:51;;;;;;;6.80;3.95;;;14.10;61.80;;;;;;5034273;28;20521;-73
2022/12/21 11:46:34;;;;;;;5.85;3.90;;;14.00;61.80;;;;;;5033727;28;20505;-74
2022/12/21 11:49:05;;;;;;;6.97;3.90;;;;;;;;;;5034105;28;20045;-73
2022/12/21 11:51:34;;;;;;;5.43;3.47;;;14.00;60.00;;;;;;5033298;28;20391;-73
2022/12/21 11:54:05;;;;;;;6.15;3.92;;;;;;;;;;5033490;28;20068;-74
2022/12/21 11:56:33;;;;;;;5.78;3.95;;;13.90;62.00;;;;;;5033335;28;20062;-72
2022/12/21 11:59:07;;;;;;;6.28;3.85;;;;;;;;;;5033635;28;20554;-74
2022/12/21 12:01:37;;;;;;;7.63;3.53;;;;;;;;;;5033075;28;20068;-74
2022/12/21 12:04:06;;;;;;;6.22;3.70;;;;;;;;;;5032164;28;20060;-73
2022/12/21 12:06:54;;;;;;;6.53;3.85;;;;;;;;;;5029764;28;20061;-72
2022/12/21 12:09:33;;;;;;;7.60;4.32;;;14.00;62.00;;;;;;5013843;28;20530;-74
2022/12/21 12:12:01;;;;;;;7.97;4.40;;;;;;;;;;5042668;28;20177;-76
2022/12/21 12:14:49;;;;;;;7.43;4.30;;;;;;;;;;5053273;28;20136;-76
2022/12/21 12:17:21;;;;;;;7.25;4.15;;;;;;;;;;5045434;28;20518;-76
2022/12/21 12:19:50;;;;;;;6.88;4.40;;;;;;;;;;5032866;28;20057;-76
2022/12/21 12:22:23;;;;;;;8.90;4.68;;;13.90;61.00;;;;;;5032966;28;20240;-76
2022/12/21 12:25:09;;;;;;;8.05;4.53;;;14.00;61.00;;;;;;5033148;28;20053;-76
2022/12/21 12:27:45;;;;;;;8.90;4.38;;;13.80;60.10;;;;;;5012588;28;20049;-76
2022/12/21 12:30:13;;;;;;;8.88;4.50;;;;;;;;;;5047819;28;20460;-76
2022/12/21 12:32:46;;;;;;;8.50;4.50;;;;;;;;;;5052896;28;20132;-75
2022/12/21 12:35:30;;;;;;;8.13;4.15;;;13.80;58.20;;;;;;5012835;28;20125;-76
2022/12/21 12:38:01;;;;;;;8.98;4.20;;;13.80;59.90;;;;;;5048260;28;20140;-77
2022/12/21 12:40:33;;;;;;;6.50;3.90;;;13.80;60.00;;;;;;5052867;28;20417;-76
2022/12/21 12:43:02;;;;;;;9.82;4.22;;;13.80;59.80;;;;;;5052813;28;20088;-76
2022/12/21 12:45:33;;;;;;;8.18;4.22;;;13.70;59.70;;;;;;5051267;28;20484;-77
2022/12/21 12:48:05;;;;;;;7.63;4.50;;;;;;;;;;5047104;28;20100;-76
2022/12/21 12:50:35;;;;;;;8.60;4.20;;;13.80;59.80;;;;;;5033081;28;20054;-77
2022/12/21 12:53:15;;;;;;;9.98;4.70;;;13.70;59.80;;;;;;5032462;28;20494;-76
2022/12/21 12:55:45;;;;;;;6.20;3.85;;;;;;;;;;5032603;28;20128;-77
2022/12/21 12:58:13;;;;;;;6.35;4.25;;;;;;;;;;5031959;28;20133;-77
2022/12/21 13:00:42;;;;;;;7.47;4.63;;;13.60;60.00;;;;;;5032391;28;20135;-77
2022/12/21 13:03:16;;;;;;;7.72;4.38;;;13.70;60.20;;;;;;5030897;28;20059;-77
2022/12/21 13:05:45;;;;;;;8.30;4.55;;;;;;;;;;5020000;28;20129;-77
2022/12/21 13:08:19;;;;;;;7.93;4.20;;;13.60;59.90;;;;;;5028836;28;20068;-77
2022/12/21 13:10:49;;;;;;;7.27;4.73;;;;;;;;;;5012565;28;20144;-77
2022/12/21 13:13:18;;;;;;;6.97;4.20;;;13.70;58.50;;;;;;5011680;28;20388;-77
2022/12/21 13:15:48;;;;;;;8.40;4.40;;;13.70;60.00;;;;;;5012207;28;20048;-77
2022/12/21 13:18:17;;;;;;;8.13;4.70;;;13.60;60.20;;;;;;5012922;28;20418;-77
2022/12/21 13:20:44;;;;;;;9.10;4.60;;;;;;;;;;5012367;28;20140;-77
2022/12/21 13:23:13;;;;;;;7.10;4.57;;;13.70;59.20;;;;;;5028553;28;20057;-77
2022/12/21 13:25:41;;;;;;;10.82;5.03;;;13.70;60.00;;;;;;5027964;28;20045;-77
2022/12/21 13:28:08;;;;;;;7.72;4.35;;;;;;;;;;5051517;28;20401;-77
2022/12/21 13:30:35;;;;;;;7.88;4.55;;;;;;;;;;5051735;28;20060;-77
2022/12/21 13:33:03;;;;;;;9.18;4.63;;;;;;;;;;5045022;28;20049;-77
2022/12/21 13:35:32;;;;;;;9.52;5.20;;;;;;;;;;5031566;28;20155;-77
2022/12/21 13:38:00;;;;;;;8.80;4.47;;;;;;;;;;5049020;28;20059;-77
2022/12/21 13:40:30;;;;;;;10.23;4.97;;;13.70;60.40;;;;;;5051520;28;20057;-77
2022/12/21 13:42:58;;;;;;;8.25;4.70;;;;;;;;;;5051486;28;20055;-77
2022/12/21 13:45:26;;;;;;;7.57;4.40;;;;;;;;;;5051176;28;20425;-77
2022/12/21 13:47:53;;;;;;;8.07;5.00;;;;;;;;;;5043922;28;20114;-77
2022/12/21 13:50:24;;;;;;;7.47;5.07;;;;;;;;;;5031504;28;20057;-77
2022/12/21 13:52:55;;;;;;;9.55;4.93;;;13.60;60.60;;;;;;5031277;28;20061;-77
2022/12/21 13:55:34;;;;;;;8.32;4.78;;;13.80;59.40;;;;;;5031477;28;20475;-77
2022/12/21 13:58:04;;;;;;;9.02;4.90;;;;;;;;;;5030527;28;20132;-76
2022/12/21 14:00:32;;;;;;;8.18;4.63;;;;;;;;;;5031096;28;20392;-77
2022/12/21 14:03:02;;;;;;;9.20;4.93;;;13.80;60.30;;;;;;5035541;28;20044;-77
2022/12/21 14:05:29;;;;;;;8.07;4.82;;;;;;;;;;5046891;28;20053;-78
2022/12/21 14:08:09;;;;;;;8.55;5.28;;;;;;;;;;5045577;28;20462;-79
2022/12/21 14:10:40;;;;;;;11.15;5.30;;;13.70;60.80;;;;;;5051264;28;20053;-78
2022/12/21 14:13:31;;;;;;;8.15;5.07;;;13.70;60.30;;;;;;5050126;28;20055;-78
2022/12/21 14:15:58;;;;;;;9.60;4.85;;;;;;;;;;5045206;28;20483;-78
2022/12/21 14:18:29;;;;;;;8.73;4.97;;;;;;;;;;5047222;28;20148;-78
2022/12/21 14:21:00;;;;;;;8.73;4.82;;;13.80;60.60;;;;;;5050160;28;20505;-78
2022/12/21 14:23:29;;;;;;;8.65;5.13;;;;;;;;;;5050469;28;20060;-78
2022/12/21 14:25:56;;;;;;;7.43;4.82;;;;;;;;;;5049830;28;20049;-78
2022/12/21 14:28:24;;;;;;;7.18;4.85;;;13.70;60.40;;;;;;5050377;28;20049;-78
2022/12/21 14:30:55;;;;;;;8.90;5.30;;;;;;;;;;5050210;28;20052;-78
2022/12/21 14:33:23;;;;;;;8.80;5.35;;;13.70;61.50;;;;;;5040213;28;20055;-78
2022/12/21 14:36:05;;;;;;;7.07;4.70;;;;;;;;;;5049796;28;20052;-78